Clayhatchee, Alabama
Current Conditions -  °F | °C
As of 8:58 PM on Friday 28 Nov 2014 (Local Time) from KOZR Reporting Station
Clear Clear  
Wind Chill:   Ceiling: Unl
Heat Index:   Visibility: 10mi
Dew Point:   Wind: 1mph
Humidity: 77%   Direction: 80°E
Pressure: 30.3"   Gusts: NA
Location:  31.2347°N, 85.7586°W
Report Text: KOZR 290258Z AUTO 08001KT 10SM CLR 04/01 A3030 RMK AO2 SLP265 T00440006 58000 RVRNO
Loading
Personal Weather Stations






























Interactive Weather Map New forecast layout! Learn more

10-Day Weather Forecast

Advertisements
Track Severe Weather on mobile